Terminal Aerodrome Forecast
Issued by NWS

Home | Current Version | Previous Version | Text Only | Print | Product List | Glossary On
Versions: 1 2 3 4 5 6 7 8 9 10 11 12 13
269
FTUS42 KMHX 281721
TAFISO
TAF
KISO 281721Z 2818/2918 21003KT P6SM SCT050
     FM282100 22008KT P6SM VCTS BKN040CB
     FM290300 24007KT P6SM BKN060
     FM290500 23005KT P6SM SCT250
      AMD LTD TO CLD VIS AND WIND=

USA.gov is the U.S. government's official web portal to all federal, state and local government web resources and services.